sensor_id;sensor_type;location;lat;lon;timestamp;pressure;altitude;pressure_sealevel;temperature;humidity
68994;BME280;56054;50.968;5.816;2023-01-08T06:02:32;99487.88;;;7.85;100.00
68994;BME280;56054;50.968;5.816;2023-01-08T06:05:39;99491.97;;;7.82;100.00
68994;BME280;56054;50.968;5.816;2023-01-08T06:08:46;99480.59;;;7.78;100.00
68994;BME280;56054;50.968;5.816;2023-01-08T06:11:53;99471.13;;;7.79;100.00
68994;BME280;56054;50.968;5.816;2023-01-08T06:15:00;99479.38;;;7.71;100.00
68994;BME280;56054;50.968;5.816;2023-01-08T06:18:14;99490.59;;;7.72;100.00
68994;BME280;56054;50.968;5.816;2023-01-08T06:21:21;99487.75;;;7.67;100.00
68994;BME280;56054;50.968;5.816;2023-01-08T06:24:28;99485.56;;;7.75;100.00
68994;BME280;56054;50.968;5.816;2023-01-08T06:28:10;99495.59;;;7.69;100.00
68994;BME280;56054;50.968;5.816;2023-01-08T06:31:18;99495.03;;;7.75;100.00
68994;BME280;56054;50.968;5.816;2023-01-08T06:34:29;99491.31;;;7.69;100.00
68994;BME280;56054;50.968;5.816;2023-01-08T06:37:38;99504.41;;;7.72;100.00
68994;BME280;56054;50.968;5.816;2023-01-08T06:40:46;99494.00;;;7.71;100.00
68994;BME280;56054;50.968;5.816;2023-01-08T06:47:19;99505.06;;;7.68;100.00
68994;BME280;56054;50.968;5.816;2023-01-08T06:50:27;99504.25;;;7.69;100.00
68994;BME280;56054;50.968;5.816;2023-01-08T06:53:34;99500.53;;;7.64;100.00
68994;BME280;56054;50.968;5.816;2023-01-08T06:56:41;99503.09;;;7.64;100.00
68994;BME280;56054;50.968;5.816;2023-01-08T06:59:55;99501.50;;;7.66;100.00
68994;BME280;56054;50.968;5.816;2023-01-08T07:03:09;99497.22;;;7.67;100.00
68994;BME280;56054;50.968;5.816;2023-01-08T07:06:23;99497.94;;;7.64;100.00
68994;BME280;56054;50.968;5.816;2023-01-08T07:09:49;99499.69;;;7.65;100.00
68994;BME280;56054;50.968;5.816;2023-01-08T07:12:57;99497.94;;;7.64;100.00
68994;BME280;56054;50.968;5.816;2023-01-08T07:16:36;99492.03;;;7.67;100.00
68994;BME280;56054;50.968;5.816;2023-01-08T07:19:53;99487.44;;;7.61;100.00
68994;BME280;56054;50.968;5.816;2023-01-08T07:26:24;99493.59;;;7.63;100.00
68994;BME280;56054;50.968;5.816;2023-01-08T07:29:34;99489.13;;;7.61;100.00
68994;BME280;56054;50.968;5.816;2023-01-08T07:32:48;99487.44;;;7.61;100.00
68994;BME280;56054;50.968;5.816;2023-01-08T07:36:02;99481.44;;;7.62;100.00
68994;BME280;56054;50.968;5.816;2023-01-08T07:39:10;99489.19;;;7.62;100.00
68994;BME280;56054;50.968;5.816;2023-01-08T07:42:23;99500.41;;;7.63;100.00
68994;BME280;56054;50.968;5.816;2023-01-08T07:45:33;99506.50;;;7.63;100.00
68994;BME280;56054;50.968;5.816;2023-01-08T07:48:59;99504.81;;;7.64;100.00
68994;BME280;56054;50.968;5.816;2023-01-08T07:52:07;99500.34;;;7.61;100.00
68994;BME280;56054;50.968;5.816;2023-01-08T07:55:21;99497.94;;;7.64;100.00
68994;BME280;56054;50.968;5.816;2023-01-08T07:58:37;99497.13;;;7.65;100.00
68994;BME280;56054;50.968;5.816;2023-01-08T08:01:45;99489.34;;;7.65;100.00
68994;BME280;56054;50.968;5.816;2023-01-08T08:04:58;99483.31;;;7.65;100.00
68994;BME280;56054;50.968;5.816;2023-01-08T08:08:13;99491.94;;;7.65;100.00
68994;BME280;56054;50.968;5.816;2023-01-08T08:11:20;99481.44;;;7.62;100.00
68994;BME280;56054;50.968;5.816;2023-01-08T08:14:32;99465.31;;;7.66;100.00
68994;BME280;56054;50.968;5.816;2023-01-08T08:17:46;99467.94;;;7.68;100.00
68994;BME280;56054;50.968;5.816;2023-01-08T08:21:01;99470.47;;;7.66;100.00
68994;BME280;56054;50.968;5.816;2023-01-08T08:24:10;99458.06;;;7.76;100.00
68994;BME280;56054;50.968;5.816;2023-01-08T08:27:49;99457.22;;;7.77;100.00
68994;BME280;56054;50.968;5.816;2023-01-08T08:34:39;99458.75;;;7.89;100.00
68994;BME280;56054;50.968;5.816;2023-01-08T08:37:46;99453.19;;;7.98;100.00
68994;BME280;56054;50.968;5.816;2023-01-08T08:44:40;99449.69;;;8.14;100.00
68994;BME280;56054;50.968;5.816;2023-01-08T08:51:26;99452.69;;;8.22;100.00
68994;BME280;56054;50.968;5.816;2023-01-08T08:54:38;99440.81;;;8.25;100.00
68994;BME280;56054;50.968;5.816;2023-01-08T08:57:52;99439.94;;;8.25;100.00
68994;BME280;56054;50.968;5.816;2023-01-08T09:01:10;99433.19;;;8.28;100.00
68994;BME280;56054;50.968;5.816;2023-01-08T09:04:18;99423.91;;;8.32;100.00
68994;BME280;56054;50.968;5.816;2023-01-08T09:07:32;99426.66;;;8.35;100.00
68994;BME280;56054;50.968;5.816;2023-01-08T09:10:53;99433.13;;;8.43;100.00
68994;BME280;56054;50.968;5.816;2023-01-08T09:14:01;99433.72;;;8.55;100.00
68994;BME280;56054;50.968;5.816;2023-01-08T09:17:33;99428.88;;;8.62;100.00
68994;BME280;56054;50.968;5.816;2023-01-08T09:21:15;99431.63;;;8.65;100.00
68994;BME280;56054;50.968;5.816;2023-01-08T09:28:42;99417.78;;;8.82;100.00
68994;BME280;56054;50.968;5.816;2023-01-08T09:35:54;99412.53;;;8.98;100.00
68994;BME280;56054;50.968;5.816;2023-01-08T09:39:03;99409.53;;;9.07;100.00
68994;BME280;56054;50.968;5.816;2023-01-08T09:42:21;99408.44;;;9.21;100.00
68994;BME280;56054;50.968;5.816;2023-01-08T09:45:32;99411.44;;;9.29;100.00
68994;BME280;56054;50.968;5.816;2023-01-08T09:48:41;99393.34;;;9.31;100.00
68994;BME280;56054;50.968;5.816;2023-01-08T09:51:48;99396.22;;;9.37;100.00
68994;BME280;56054;50.968;5.816;2023-01-08T09:55:02;99384.41;;;9.43;100.00
68994;BME280;56054;50.968;5.816;2023-01-08T09:58:30;99379.38;;;9.47;100.00
68994;BME280;56054;50.968;5.816;2023-01-08T10:01:39;99389.59;;;9.43;100.00
68994;BME280;56054;50.968;5.816;2023-01-08T10:04:58;99386.13;;;9.43;100.00
68994;BME280;56054;50.968;5.816;2023-01-08T10:11:23;99369.34;;;9.35;100.00
68994;BME280;56054;50.968;5.816;2023-01-08T10:14:39;99379.69;;;9.35;100.00
68994;BME280;56054;50.968;5.816;2023-01-08T10:18:05;99370.63;;;9.25;100.00
68994;BME280;56054;50.968;5.816;2023-01-08T10:21:23;99366.09;;;9.21;100.00
68994;BME280;56054;50.968;5.816;2023-01-08T10:24:36;99358.19;;;9.18;100.00
68994;BME280;56054;50.968;5.816;2023-01-08T10:27:48;99365.97;;;9.18;100.00
68994;BME280;56054;50.968;5.816;2023-01-08T10:31:05;99357.53;;;9.22;100.00
68994;BME280;56054;50.968;5.816;2023-01-08T10:34:42;99357.53;;;9.22;100.00
68994;BME280;56054;50.968;5.816;2023-01-08T10:37:50;99364.19;;;9.17;100.00
68994;BME280;56054;50.968;5.816;2023-01-08T10:44:16;99363.47;;;9.19;100.00
68994;BME280;56054;50.968;5.816;2023-01-08T10:47:27;99359.06;;;9.18;100.00
68994;BME280;56054;50.968;5.816;2023-01-08T10:50:35;99351.59;;;9.25;100.00
68994;BME280;56054;50.968;5.816;2023-01-08T10:53:50;99362.00;;;9.44;100.00
68994;BME280;56054;50.968;5.816;2023-01-08T10:56:58;99350.13;;;9.49;100.00
68994;BME280;56054;50.968;5.816;2023-01-08T11:00:25;99348.06;;;9.42;100.00
68994;BME280;56054;50.968;5.816;2023-01-08T11:03:34;99357.00;;;9.49;100.00
68994;BME280;56054;50.968;5.816;2023-01-08T11:06:48;99344.09;;;9.70;100.00
68994;BME280;56054;50.968;5.816;2023-01-08T11:09:56;99341.25;;;9.83;100.00
68994;BME280;56054;50.968;5.816;2023-01-08T11:16:38;99335.22;;;9.84;97.84
68994;BME280;56054;50.968;5.816;2023-01-08T11:19:46;99331.94;;;9.88;96.33
68994;BME280;56054;50.968;5.816;2023-01-08T11:26:20;99311.41;;;9.93;95.63
68994;BME280;56054;50.968;5.816;2023-01-08T11:33:21;99332.75;;;9.68;96.28
68994;BME280;56054;50.968;5.816;2023-01-08T11:36:34;99325.75;;;9.65;96.62
68994;BME280;56054;50.968;5.816;2023-01-08T11:39:44;99320.41;;;9.81;97.25
68994;BME280;56054;50.968;5.816;2023-01-08T11:43:09;99316.84;;;9.79;96.73
68994;BME280;56054;50.968;5.816;2023-01-08T11:53:29;99301.69;;;9.89;93.68
68994;BME280;56054;50.968;5.816;2023-01-08T12:07:25;99297.75;;;9.58;94.73
68994;BME280;56054;50.968;5.816;2023-01-08T12:10:49;99293.41;;;9.57;94.01
68994;BME280;56054;50.968;5.816;2023-01-08T12:39:26;99244.28;;;10.02;88.85
68994;BME280;56054;50.968;5.816;2023-01-08T12:46:43;99228.09;;;10.28;88.51
68994;BME280;56054;50.968;5.816;2023-01-08T13:08:39;99222.38;;;10.16;87.41
68994;BME280;56054;50.968;5.816;2023-01-08T13:11:51;99207.53;;;10.12;87.42
68994;BME280;56054;50.968;5.816;2023-01-08T13:14:59;99219.69;;;10.13;88.61
68994;BME280;56054;50.968;5.816;2023-01-08T13:18:14;99204.88;;;10.11;89.94
68994;BME280;56054;50.968;5.816;2023-01-08T13:21:32;99203.28;;;10.14;89.98
68994;BME280;56054;50.968;5.816;2023-01-08T13:24:40;99199.41;;;10.25;90.00
68994;BME280;56054;50.968;5.816;2023-01-08T13:27:47;99205.38;;;10.44;89.49
68994;BME280;56054;50.968;5.816;2023-01-08T13:30:54;99201.88;;;10.43;84.29
68994;BME280;56054;50.968;5.816;2023-01-08T13:34:01;99200.00;;;10.39;81.34
68994;BME280;56054;50.968;5.816;2023-01-08T13:37:08;99190.19;;;10.32;81.99
68994;BME280;56054;50.968;5.816;2023-01-08T13:43:58;99175.09;;;10.23;82.39
68994;BME280;56054;50.968;5.816;2023-01-08T13:47:21;99181.94;;;10.21;82.85
68994;BME280;56054;50.968;5.816;2023-01-08T13:50:28;99172.38;;;10.20;83.32
68994;BME280;56054;50.968;5.816;2023-01-08T13:53:35;99184.50;;;10.20;83.68
68994;BME280;56054;50.968;5.816;2023-01-08T13:56:45;99163.91;;;10.24;84.05
68994;BME280;56054;50.968;5.816;2023-01-08T13:59:54;99140.41;;;10.21;83.79
68994;BME280;56054;50.968;5.816;2023-01-08T14:03:04;99149.09;;;10.22;83.99
68994;BME280;56054;50.968;5.816;2023-01-08T14:09:23;99138.00;;;10.26;82.08
68994;BME280;56054;50.968;5.816;2023-01-08T14:12:38;99136.28;;;10.26;81.43
68994;BME280;56054;50.968;5.816;2023-01-08T14:15:46;99123.94;;;10.21;81.98
68994;BME280;56054;50.968;5.816;2023-01-08T14:18:55;99116.84;;;10.17;81.94
68994;BME280;56054;50.968;5.816;2023-01-08T14:22:11;99124.59;;;10.15;82.66
68994;BME280;56054;50.968;5.816;2023-01-08T14:25:21;99107.13;;;10.11;83.45
68994;BME280;56054;50.968;5.816;2023-01-08T14:28:28;99110.44;;;10.07;83.74
68994;BME280;56054;50.968;5.816;2023-01-08T14:31:44;99099.16;;;10.06;83.21
68994;BME280;56054;50.968;5.816;2023-01-08T14:34:52;99113.75;;;10.03;84.53
68994;BME280;56054;50.968;5.816;2023-01-08T14:38:01;99109.25;;;9.99;84.96
68994;BME280;56054;50.968;5.816;2023-01-08T14:41:12;99112.50;;;9.93;84.01
68994;BME280;56054;50.968;5.816;2023-01-08T14:44:22;99100.13;;;9.86;84.39
68994;BME280;56054;50.968;5.816;2023-01-08T14:47:39;99100.56;;;9.76;85.09
68994;BME280;56054;50.968;5.816;2023-01-08T14:51:09;99098.75;;;9.73;85.13
68994;BME280;56054;50.968;5.816;2023-01-08T14:54:20;99104.41;;;9.85;87.04
68994;BME280;56054;50.968;5.816;2023-01-08T14:57:28;99099.09;;;9.82;86.01
68994;BME280;56054;50.968;5.816;2023-01-08T15:00:36;99093.22;;;9.86;85.48
68994;BME280;56054;50.968;5.816;2023-01-08T15:03:44;99082.25;;;9.94;86.42
68994;BME280;56054;50.968;5.816;2023-01-08T15:07:05;99080.94;;;9.82;86.84
68994;BME280;56054;50.968;5.816;2023-01-08T15:10:41;99080.63;;;9.75;86.94
68994;BME280;56054;50.968;5.816;2023-01-08T15:13:49;99078.00;;;9.73;86.64
68994;BME280;56054;50.968;5.816;2023-01-08T15:16:59;99081.28;;;9.69;86.56
68994;BME280;56054;50.968;5.816;2023-01-08T15:20:16;99079.56;;;9.70;87.33
68994;BME280;56054;50.968;5.816;2023-01-08T15:23:27;99073.38;;;9.66;86.42
68994;BME280;56054;50.968;5.816;2023-01-08T15:26:40;99080.09;;;9.61;85.95
68994;BME280;56054;50.968;5.816;2023-01-08T15:29:50;99084.34;;;9.59;86.38
68994;BME280;56054;50.968;5.816;2023-01-08T15:33:20;99081.44;;;9.51;87.03
68994;BME280;56054;50.968;5.816;2023-01-08T15:36:27;99083.47;;;9.58;87.01
68994;BME280;56054;50.968;5.816;2023-01-08T15:39:34;99084.06;;;9.53;86.57
68994;BME280;56054;50.968;5.816;2023-01-08T15:42:42;99069.94;;;9.45;86.96
68994;BME280;56054;50.968;5.816;2023-01-08T15:45:49;99065.38;;;9.39;87.24
68994;BME280;56054;50.968;5.816;2023-01-08T15:48:56;99071.19;;;9.33;87.23
68994;BME280;56054;50.968;5.816;2023-01-08T15:52:03;99064.16;;;9.31;86.57
68994;BME280;56054;50.968;5.816;2023-01-08T15:55:16;99062.34;;;9.28;87.13
68994;BME280;56054;50.968;5.816;2023-01-08T15:58:23;99066.38;;;9.21;87.35
68994;BME280;56054;50.968;5.816;2023-01-08T16:01:31;99059.31;;;9.17;88.17
68994;BME280;56054;50.968;5.816;2023-01-08T16:04:38;99062.47;;;9.10;88.68
68994;BME280;56054;50.968;5.816;2023-01-08T16:07:45;99059.69;;;9.06;88.61
68994;BME280;56054;50.968;5.816;2023-01-08T16:10:53;99045.84;;;9.05;88.89
68994;BME280;56054;50.968;5.816;2023-01-08T16:14:00;99043.84;;;8.99;88.82
68994;BME280;56054;50.968;5.816;2023-01-08T16:17:07;99040.19;;;8.94;89.73
68994;BME280;56054;50.968;5.816;2023-01-08T16:20:14;99030.34;;;8.86;90.95
68994;BME280;56054;50.968;5.816;2023-01-08T16:23:21;99037.16;;;8.84;90.68
68994;BME280;56054;50.968;5.816;2023-01-08T16:26:28;99039.53;;;8.79;91.18
68994;BME280;56054;50.968;5.816;2023-01-08T16:29:35;99025.66;;;8.77;91.21
68994;BME280;56054;50.968;5.816;2023-01-08T16:32:42;99021.03;;;8.70;91.83
68994;BME280;56054;50.968;5.816;2023-01-08T16:35:56;99027.03;;;8.90;92.10
68994;BME280;56054;50.968;5.816;2023-01-08T16:39:04;99017.84;;;8.75;92.47
68994;BME280;56054;50.968;5.816;2023-01-08T16:42:14;99008.06;;;8.70;92.21
68994;BME280;56054;50.968;5.816;2023-01-08T16:45:23;99001.19;;;8.70;92.58
68994;BME280;56054;50.968;5.816;2023-01-08T16:48:38;98998.66;;;8.72;92.11
68994;BME280;56054;50.968;5.816;2023-01-08T16:51:49;98984.78;;;8.70;92.45
68994;BME280;56054;50.968;5.816;2023-01-08T16:54:57;98976.06;;;8.68;92.63
68994;BME280;56054;50.968;5.816;2023-01-08T16:58:06;98978.41;;;8.62;93.14
68994;BME280;56054;50.968;5.816;2023-01-08T17:01:19;98974.84;;;8.60;93.41
68994;BME280;56054;50.968;5.816;2023-01-08T17:04:31;98980.16;;;8.63;92.91
68994;BME280;56054;50.968;5.816;2023-01-08T17:07:38;98970.50;;;8.59;92.89
68994;BME280;56054;50.968;5.816;2023-01-08T17:10:53;98965.88;;;8.51;93.01
68994;BME280;56054;50.968;5.816;2023-01-08T17:14:07;98957.56;;;8.59;92.79
68994;BME280;56054;50.968;5.816;2023-01-08T17:17:20;98954.78;;;8.54;92.80
68994;BME280;56054;50.968;5.816;2023-01-08T17:20:27;98957.28;;;8.52;92.92
68994;BME280;56054;50.968;5.816;2023-01-08T17:23:36;98956.28;;;8.49;93.05
68994;BME280;56054;50.968;5.816;2023-01-08T17:26:43;98940.47;;;8.43;93.38
68994;BME280;56054;50.968;5.816;2023-01-08T17:29:52;98939.84;;;8.48;92.53
68994;BME280;56054;50.968;5.816;2023-01-08T17:32:59;98940.81;;;8.50;92.59
68994;BME280;56054;50.968;5.816;2023-01-08T17:36:14;98938.22;;;8.50;92.92
68994;BME280;56054;50.968;5.816;2023-01-08T17:39:22;98939.84;;;8.48;92.65
68994;BME280;56054;50.968;5.816;2023-01-08T17:42:29;98927.06;;;8.51;92.40
68994;BME280;56054;50.968;5.816;2023-01-08T17:45:46;98926.16;;;8.51;91.90
68994;BME280;56054;50.968;5.816;2023-01-08T17:48:53;98927.81;;;8.49;92.07
68994;BME280;56054;50.968;5.816;2023-01-08T17:52:00;98928.00;;;8.53;92.19
68994;BME280;56054;50.968;5.816;2023-01-08T17:55:07;98913.16;;;8.49;91.90
68994;BME280;56054;50.968;5.816;2023-01-08T17:58:14;98913.84;;;8.45;92.23
68994;BME280;56054;50.968;5.816;2023-01-08T18:01:21;98906.91;;;8.44;92.42
68994;BME280;56054;50.968;5.816;2023-01-08T18:04:28;98903.50;;;8.45;92.53
68994;BME280;56054;50.968;5.816;2023-01-08T18:07:35;98910.19;;;8.40;92.27
68994;BME280;56054;50.968;5.816;2023-01-08T18:10:49;98898.13;;;8.41;93.13
68994;BME280;56054;50.968;5.816;2023-01-08T18:14:00;98899.06;;;8.43;93.09
68994;BME280;56054;50.968;5.816;2023-01-08T18:17:07;98898.41;;;8.47;93.15
68994;BME280;56054;50.968;5.816;2023-01-08T18:20:14;98880.31;;;8.48;93.21
68994;BME280;56054;50.968;5.816;2023-01-08T18:23:22;98891.22;;;8.41;94.12
68994;BME280;56054;50.968;5.816;2023-01-08T18:26:29;98880.19;;;8.45;93.79
68994;BME280;56054;50.968;5.816;2023-01-08T18:29:36;98870.69;;;8.44;94.18
68994;BME280;56054;50.968;5.816;2023-01-08T18:32:43;98870.25;;;8.35;95.23
68994;BME280;56054;50.968;5.816;2023-01-08T18:35:50;98865.19;;;8.38;95.35
68994;BME280;56054;50.968;5.816;2023-01-08T18:38:57;98869.59;;;8.39;95.39
68994;BME280;56054;50.968;5.816;2023-01-08T18:42:04;98863.44;;;8.37;95.61
68994;BME280;56054;50.968;5.816;2023-01-08T18:45:11;98865.19;;;8.38;95.80
68994;BME280;56054;50.968;5.816;2023-01-08T18:48:18;98844.50;;;8.38;96.05
68994;BME280;56054;50.968;5.816;2023-01-08T18:51:30;98844.25;;;8.32;96.64
68994;BME280;56054;50.968;5.816;2023-01-08T18:54:37;98836.44;;;8.30;97.09
68994;BME280;56054;50.968;5.816;2023-01-08T18:57:44;98834.72;;;8.31;96.83
68994;BME280;56054;50.968;5.816;2023-01-08T19:00:51;98837.19;;;8.28;97.46
68994;BME280;56054;50.968;5.816;2023-01-08T19:03:58;98837.94;;;8.25;97.56
68994;BME280;56054;50.968;5.816;2023-01-08T19:07:05;98830.09;;;8.24;97.42
68994;BME280;56054;50.968;5.816;2023-01-08T19:10:27;98829.03;;;8.19;98.00
68994;BME280;56054;50.968;5.816;2023-01-08T19:13:37;98823.75;;;8.15;98.14
68994;BME280;56054;50.968;5.816;2023-01-08T19:16:46;98816.19;;;8.20;97.75
68994;BME280;56054;50.968;5.816;2023-01-08T19:19:53;98809.94;;;8.15;98.10
68994;BME280;56054;50.968;5.816;2023-01-08T19:23:00;98808.34;;;8.19;98.19
68994;BME280;56054;50.968;5.816;2023-01-08T19:26:07;98805.06;;;8.23;98.79
68994;BME280;56054;50.968;5.816;2023-01-08T19:29:14;98797.31;;;8.23;98.74
68994;BME280;56054;50.968;5.816;2023-01-08T19:32:25;98801.03;;;8.29;98.26
68994;BME280;56054;50.968;5.816;2023-01-08T19:35:37;98795.44;;;8.40;98.23
68994;BME280;56054;50.968;5.816;2023-01-08T19:38:44;98780.91;;;8.43;98.08
68994;BME280;56054;50.968;5.816;2023-01-08T19:41:59;98773.22;;;8.45;98.36
68994;BME280;56054;50.968;5.816;2023-01-08T19:45:06;98770.56;;;8.43;97.75
68994;BME280;56054;50.968;5.816;2023-01-08T19:48:13;98766.31;;;8.45;98.21
68994;BME280;56054;50.968;5.816;2023-01-08T19:51:20;98757.13;;;8.52;98.00
68994;BME280;56054;50.968;5.816;2023-01-08T19:54:30;98764.00;;;8.51;97.84
68994;BME280;56054;50.968;5.816;2023-01-08T19:57:37;98758.69;;;8.48;98.13
68994;BME280;56054;50.968;5.816;2023-01-08T20:00:44;98746.75;;;8.52;97.81
68994;BME280;56054;50.968;5.816;2023-01-08T20:03:51;98738.03;;;8.50;98.28
68994;BME280;56054;50.968;5.816;2023-01-08T20:06:59;98734.81;;;8.55;97.47
68994;BME280;56054;50.968;5.816;2023-01-08T20:10:08;98729.63;;;8.55;98.06
68994;BME280;56054;50.968;5.816;2023-01-08T20:13:22;98732.03;;;8.51;98.67
68994;BME280;56054;50.968;5.816;2023-01-08T20:16:31;98736.00;;;8.64;97.67
68994;BME280;56054;50.968;5.816;2023-01-08T20:19:41;98737.69;;;8.63;97.62
68994;BME280;56054;50.968;5.816;2023-01-08T20:22:51;98731.16;;;8.73;97.49
68994;BME280;56054;50.968;5.816;2023-01-08T20:26:07;98724.59;;;8.81;96.88
68994;BME280;56054;50.968;5.816;2023-01-08T20:29:15;98724.50;;;8.79;97.84
68994;BME280;56054;50.968;5.816;2023-01-08T20:32:22;98724.69;;;8.84;98.40
68994;BME280;56054;50.968;5.816;2023-01-08T20:35:29;98712.63;;;8.85;99.13
68994;BME280;56054;50.968;5.816;2023-01-08T20:38:36;98701.22;;;8.79;100.00
68994;BME280;56054;50.968;5.816;2023-01-08T20:41:53;98705.63;;;8.82;100.00
68994;BME280;56054;50.968;5.816;2023-01-08T20:45:00;98691.03;;;8.84;100.00
68994;BME280;56054;50.968;5.816;2023-01-08T20:48:10;98698.63;;;8.79;100.00
68994;BME280;56054;50.968;5.816;2023-01-08T20:51:25;98709.75;;;8.77;100.00
68994;BME280;56054;50.968;5.816;2023-01-08T20:54:32;98706.16;;;8.73;100.00
68994;BME280;56054;50.968;5.816;2023-01-08T20:57:49;98706.00;;;8.69;100.00
68994;BME280;56054;50.968;5.816;2023-01-08T21:01:03;98711.94;;;8.66;100.00
68994;BME280;56054;50.968;5.816;2023-01-08T21:04:14;98704.97;;;8.65;100.00
68994;BME280;56054;50.968;5.816;2023-01-08T21:07:22;98703.75;;;8.55;100.00
68994;BME280;56054;50.968;5.816;2023-01-08T21:10:30;98705.28;;;8.50;100.00
68994;BME280;56054;50.968;5.816;2023-01-08T21:13:40;98683.34;;;8.41;100.00
68994;BME280;56054;50.968;5.816;2023-01-08T21:16:53;98682.19;;;8.34;100.00
68994;BME280;56054;50.968;5.816;2023-01-08T21:20:06;98673.25;;;8.26;100.00
68994;BME280;56054;50.968;5.816;2023-01-08T21:23:15;98670.75;;;8.29;100.00
68994;BME280;56054;50.968;5.816;2023-01-08T21:26:24;98669.22;;;8.11;100.00
68994;BME280;56054;50.968;5.816;2023-01-08T21:29:34;98671.00;;;8.12;100.00
68994;BME280;56054;50.968;5.816;2023-01-08T21:41:30;98655.34;;;8.09;100.00
68994;BME280;56054;50.968;5.816;2023-01-08T21:44:45;98642.19;;;8.03;100.00
